Time;durP1;ratioP1;P1;durP2;ratioP2;P2;SDS_P1;SDS_P2;PMS_P1;PMS_P2;Temp;Humidity;BMP_temperature;BMP_pressure;BME280_temperature;BME280_humidity;BME280_pressure;Samples;Min_cycle;Max_cycle;Signal;HPM_P1;HPM_P2
2023/04/17 00:00:49;;;;;;;63.95;27.33;;;;;;;;;;5030177;28;20360;-71
2023/04/17 00:03:15;;;;;;;61.88;26.40;;;;;;;;;;5030618;28;20506;-71
2023/04/17 00:05:42;;;;;;;64.07;27.00;;;;;;;;;;5030768;28;20021;-72
2023/04/17 00:08:07;;;;;;;60.30;28.17;;;;;;;;;;5030954;28;20021;-72
2023/04/17 00:10:32;;;;;;;58.03;26.17;;;;;;;;;;5030837;28;20068;-72
2023/04/17 00:12:58;;;;;;;60.27;27.97;;;;;;;;;;5030409;28;20032;-72
2023/04/17 00:15:23;;;;;;;64.25;28.23;;;;;;;;;;5030524;28;20355;-72
2023/04/17 00:17:48;;;;;;;67.30;28.50;;;;;;;;;;5030988;28;20039;-72
2023/04/17 00:20:13;;;;;;;66.87;28.43;;;;;;;;;;5030176;28;20284;-72
2023/04/17 00:22:39;;;;;;;67.28;29.08;;;;;;;;;;5030782;28;20279;-72
2023/04/17 00:25:04;;;;;;;65.28;28.83;;;;;;;;;;5029434;28;20017;-72
2023/04/17 00:27:29;;;;;;;58.28;28.27;;;;;;;;;;5030306;28;20092;-72
2023/04/17 00:29:55;;;;;;;63.10;29.80;;;;;;;;;;5030705;28;20108;-72
2023/04/17 00:32:20;;;;;;;66.40;28.48;;;;;;;;;;5030613;28;21543;-71
2023/04/17 00:34:45;;;;;;;66.00;29.63;;;;;;;;;;5029859;28;20431;-72
2023/04/17 00:37:10;;;;;;;64.30;29.67;;;;;;;;;;5028254;28;20291;-72
2023/04/17 00:39:35;;;;;;;64.27;29.20;;;;;;;;;;5029174;28;20024;-72
2023/04/17 00:42:01;;;;;;;67.38;30.40;;;;;;;;;;5028795;28;20812;-71
2023/04/17 00:44:26;;;;;;;74.47;32.65;;;;;;;;;;5027529;28;20036;-72
2023/04/17 00:46:51;;;;;;;64.43;30.17;;;;;;;;;;5030541;28;20036;-72
2023/04/17 00:49:17;;;;;;;64.50;30.45;;;;;;;;;;5030138;28;20296;-72
2023/04/17 00:51:42;;;;;;;66.43;31.08;;;;;;;;;;5030108;28;20067;-71
2023/04/17 00:54:07;;;;;;;69.93;29.80;;;;;;;;;;5030332;28;20026;-71
2023/04/17 00:56:33;;;;;;;79.30;31.88;;;;;;;;;;5031811;28;20021;-72
2023/04/17 00:59:00;;;;;;;71.38;32.75;;;;;;;;;;5030094;28;20026;-72
2023/04/17 01:01:25;;;;;;;70.85;31.90;;;;;;;;;;5019263;28;20037;-72
2023/04/17 01:03:50;;;;;;;66.47;32.80;;;;;;;;;;5030306;28;20018;-72
2023/04/17 01:06:16;;;;;;;76.97;31.80;;;;;;;;;;5029973;28;20603;-72
2023/04/17 01:08:41;;;;;;;61.45;29.42;;;;;;;;;;5030591;28;20475;-71
2023/04/17 01:11:07;;;;;;;70.82;31.25;;;;;;;;;;5029739;28;20100;-71
2023/04/17 01:13:32;;;;;;;82.85;33.65;;;;;;;;;;5030662;28;20486;-72
2023/04/17 01:15:58;;;;;;;70.32;32.30;;;;;;;;;;5029021;28;20029;-72
2023/04/17 01:18:23;;;;;;;72.60;31.53;;;;;;;;;;5026822;28;20101;-72
2023/04/17 01:20:48;;;;;;;77.10;33.90;;;;;;;;;;5030078;28;20279;-72
2023/04/17 01:23:13;;;;;;;70.27;32.37;;;;;;;;;;5030611;28;20622;-71
2023/04/17 01:25:39;;;;;;;69.55;32.45;;;;;;;;;;5029831;28;20410;-72
2023/04/17 01:28:04;;;;;;;70.37;33.13;;;;;;;;;;5030154;28;20059;-71
2023/04/17 01:30:29;;;;;;;82.15;32.72;;;;;;;;;;5029870;28;20652;-71
2023/04/17 01:32:55;;;;;;;78.20;32.30;;;;;;;;;;5030103;28;20026;-71
2023/04/17 01:35:20;;;;;;;71.22;34.08;;;;;;;;;;5025611;28;20788;-72
2023/04/17 01:37:45;;;;;;;70.30;32.97;;;;;;;;;;5030154;28;20097;-71
2023/04/17 01:40:11;;;;;;;70.03;32.63;;;;;;;;;;5027290;28;20031;-71
2023/04/17 01:42:36;;;;;;;74.55;33.40;;;;;;;;;;5033430;28;20290;-72
2023/04/17 01:45:01;;;;;;;76.60;32.57;;;;;;;;;;5024777;28;20057;-72
2023/04/17 01:47:26;;;;;;;69.77;31.93;;;;;;;;;;5023891;28;20260;-72
2023/04/17 01:49:51;;;;;;;74.00;32.83;;;;;;;;;;5032730;28;20927;-71
2023/04/17 01:52:16;;;;;;;75.63;32.70;;;;;;;;;;5033175;28;20343;-71
2023/04/17 01:54:41;;;;;;;73.13;33.70;;;;;;;;;;5029220;28;20777;-71
2023/04/17 01:57:07;;;;;;;67.83;32.53;;;;;;;;;;5032486;28;20407;-71
2023/04/17 01:59:32;;;;;;;86.03;33.40;;;;;;;;;;5032957;28;20278;-71
2023/04/17 02:01:57;;;;;;;75.35;35.25;;;;;;;;;;5033015;28;20318;-71
2023/04/17 02:04:22;;;;;;;77.32;33.70;;;;;;;;;;5030085;28;20021;-71
2023/04/17 02:06:47;;;;;;;77.93;33.20;;;;;;;;;;5031576;28;20079;-71
2023/04/17 02:09:13;;;;;;;75.17;35.07;;;;;;;;;;5032638;28;20279;-71
2023/04/17 02:11:38;;;;;;;69.97;33.30;;;;;;;;;;5031869;28;20292;-71
2023/04/17 02:14:03;;;;;;;85.82;33.58;;;;;;;;;;5031248;28;20291;-72
2023/04/17 02:16:30;;;;;;;78.85;33.72;;;;;;;;;;5030757;28;20029;-71
2023/04/17 02:18:55;;;;;;;83.95;33.88;;;;;;;;;;5026850;28;20017;-71
2023/04/17 02:21:20;;;;;;;74.50;33.47;;;;;;;;;;5032731;28;20017;-71
2023/04/17 02:23:46;;;;;;;73.87;33.20;;;;;;;;;;5032709;28;20676;-72
2023/04/17 02:26:11;;;;;;;75.93;35.55;;;;;;;;;;5031655;28;20280;-71
2023/04/17 02:28:36;;;;;;;72.28;32.15;;;;;;;;;;5032268;28;20031;-71
2023/04/17 02:31:04;;;;;;;82.03;34.92;;;;;;;;;;5032207;28;20026;-72
2023/04/17 02:33:29;;;;;;;81.50;35.00;;;;;;;;;;5032010;28;20029;-71
2023/04/17 02:35:54;;;;;;;84.77;37.33;;;;;;;;;;5032215;28;20017;-71
2023/04/17 02:38:20;;;;;;;81.30;34.60;;;;;;;;;;5032240;28;20669;-71
2023/04/17 02:40:45;;;;;;;75.18;34.13;;;;;;;;;;5032652;28;20017;-71
2023/04/17 02:43:12;;;;;;;84.97;36.57;;;;;;;;;;5031915;28;20013;-71
2023/04/17 02:45:38;;;;;;;86.28;36.83;;;;;;;;;;5032388;28;20260;-71
2023/04/17 02:48:03;;;;;;;78.57;34.63;;;;;;;;;;5030706;28;20405;-71
2023/04/17 02:50:28;;;;;;;82.60;37.00;;;;;;;;;;5031952;28;20284;-72
2023/04/17 02:52:53;;;;;;;80.00;35.77;;;;;;;;;;5030656;28;20035;-71
2023/04/17 02:55:19;;;;;;;78.18;35.05;;;;;;;;;;5030464;28;20260;-71
2023/04/17 02:57:45;;;;;;;79.30;37.63;;;;;;;;;;5031864;28;20043;-71
2023/04/17 03:00:13;;;;;;;76.65;35.25;;;;;;;;;;5031104;28;20022;-71
2023/04/17 03:02:39;;;;;;;78.05;36.63;;;;;;;;;;5031339;28;20505;-71
2023/04/17 03:05:05;;;;;;;90.55;38.95;;;;;;;;;;5031581;28;20021;-71
2023/04/17 03:07:31;;;;;;;81.93;37.28;;;;;;;;;;5032293;28;20551;-72
2023/04/17 03:09:56;;;;;;;91.68;39.42;;;;;;;;;;5030864;28;20108;-71
2023/04/17 03:12:21;;;;;;;81.45;37.95;;;;;;;;;;5030659;28;20110;-71
2023/04/17 03:14:46;;;;;;;81.93;36.43;;;;;;;;;;5031582;28;20603;-71
2023/04/17 03:17:12;;;;;;;85.33;37.13;;;;;;;;;;5032732;28;20337;-71
2023/04/17 03:19:38;;;;;;;84.93;37.72;;;;;;;;;;5033947;28;20263;-71
2023/04/17 03:22:03;;;;;;;85.07;37.05;;;;;;;;;;5034186;28;20017;-71
2023/04/17 03:24:28;;;;;;;84.03;37.20;;;;;;;;;;5031222;28;20021;-71
2023/04/17 03:26:54;;;;;;;86.15;39.80;;;;;;;;;;5028561;28;20532;-72
2023/04/17 03:29:20;;;;;;;79.20;37.75;;;;;;;;;;5029216;28;20018;-71
2023/04/17 03:31:45;;;;;;;81.63;36.73;;;;;;;;;;5032813;28;20025;-72
2023/04/17 03:34:10;;;;;;;73.87;34.90;;;;;;;;;;5031430;28;20276;-71
2023/04/17 03:36:35;;;;;;;78.00;38.17;;;;;;;;;;5030725;28;20291;-71
2023/04/17 03:39:01;;;;;;;80.75;36.80;;;;;;;;;;5030904;28;20745;-71
2023/04/17 03:41:26;;;;;;;84.43;38.35;;;;;;;;;;5032067;28;20056;-71
2023/04/17 03:43:51;;;;;;;80.33;37.23;;;;;;;;;;5031245;28;20045;-71
2023/04/17 03:46:16;;;;;;;79.43;37.83;;;;;;;;;;5031650;28;20272;-71
2023/04/17 03:48:41;;;;;;;72.80;36.47;;;;;;;;;;5030859;28;20043;-71
2023/04/17 03:51:06;;;;;;;74.70;36.40;;;;;;;;;;5030745;28;20271;-71
2023/04/17 03:53:32;;;;;;;79.90;35.40;;;;;;;;;;5031590;28;20796;-71
2023/04/17 03:55:57;;;;;;;80.60;37.27;;;;;;;;;;5031029;28;20064;-71
2023/04/17 03:58:22;;;;;;;78.40;36.30;;;;;;;;;;5029021;28;20279;-71
2023/04/17 04:00:48;;;;;;;81.13;39.17;;;;;;;;;;5027166;28;20032;-72
2023/04/17 04:03:14;;;;;;;78.60;35.65;;;;;;;;;;5030668;28;20335;-71
2023/04/17 04:05:39;;;;;;;71.40;35.65;;;;;;;;;;5023594;28;20096;-71
2023/04/17 04:08:04;;;;;;;79.53;36.13;;;;;;;;;;5030532;28;20100;-71
2023/04/17 04:10:31;;;;;;;76.00;35.10;;;;;;;;;;5030318;28;20287;-71
2023/04/17 04:12:56;;;;;;;74.38;36.00;;;;;;;;;;5029745;28;20500;-71
2023/04/17 04:15:21;;;;;;;83.57;36.70;;;;;;;;;;5030400;28;20160;-71
2023/04/17 04:17:46;;;;;;;78.30;35.53;;;;;;;;;;5028742;28;20064;-71
2023/04/17 04:20:12;;;;;;;69.37;34.50;;;;;;;;;;5030520;28;20275;-71
2023/04/17 04:22:37;;;;;;;81.03;35.80;;;;;;;;;;5029761;28;20295;-71
2023/04/17 04:25:02;;;;;;;70.53;34.40;;;;;;;;;;5027720;28;20104;-71
2023/04/17 04:27:31;;;;;;;79.50;35.92;;;;;;;;;;5029891;28;20618;-71
2023/04/17 04:29:57;;;;;;;74.32;34.65;;;;;;;;;;5025048;28;20024;-71
2023/04/17 04:32:24;;;;;;;65.72;32.55;;;;;;;;;;5027875;28;20044;-71
2023/04/17 04:34:49;;;;;;;65.72;32.53;;;;;;;;;;5030370;28;20025;-71
2023/04/17 04:37:14;;;;;;;73.35;34.00;;;;;;;;;;5030305;28;20540;-71
2023/04/17 04:39:40;;;;;;;60.73;31.50;;;;;;;;;;5029177;28;20092;-71
2023/04/17 04:42:08;;;;;;;67.70;32.20;;;;;;;;;;5030387;28;20749;-71
2023/04/17 04:44:33;;;;;;;74.88;33.50;;;;;;;;;;5030145;28;20013;-71
2023/04/17 04:46:59;;;;;;;72.53;34.57;;;;;;;;;;5030509;28;20024;-71
2023/04/17 04:49:24;;;;;;;66.35;31.63;;;;;;;;;;5030082;28;20781;-71
2023/04/17 04:51:50;;;;;;;61.17;29.65;;;;;;;;;;5030199;28;20437;-72
2023/04/17 04:54:15;;;;;;;68.95;32.38;;;;;;;;;;5029821;28;20040;-71
2023/04/17 04:56:43;;;;;;;61.40;30.88;;;;;;;;;;5030284;28;20108;-71
2023/04/17 04:59:08;;;;;;;65.72;32.80;;;;;;;;;;5028738;28;20478;-71
2023/04/17 05:01:34;;;;;;;59.83;31.13;;;;;;;;;;5028170;28;20025;-71
2023/04/17 05:03:59;;;;;;;62.55;31.60;;;;;;;;;;5028938;28;20033;-71
2023/04/17 05:06:25;;;;;;;64.00;32.73;;;;;;;;;;5028665;28;20080;-71
2023/04/17 05:08:50;;;;;;;63.03;30.85;;;;;;;;;;5030490;28;20268;-71
2023/04/17 05:11:16;;;;;;;67.15;31.00;;;;;;;;;;5029083;28;20021;-71
2023/04/17 05:13:41;;;;;;;59.63;29.52;;;;;;;;;;5029162;28;20018;-72
2023/04/17 05:16:06;;;;;;;59.15;28.30;;;;;;;;;;5029360;28;20030;-71
2023/04/17 05:18:31;;;;;;;62.42;30.25;;;;;;;;;;5027829;28;20026;-71
2023/04/17 05:20:56;;;;;;;53.35;28.13;;;;;;;;;;5029328;28;20026;-71
2023/04/17 05:23:22;;;;;;;67.37;32.30;;;;;;;;;;5029509;28;20029;-71
2023/04/17 05:25:47;;;;;;;58.45;28.80;;;;;;;;;;5033123;28;20268;-71
2023/04/17 05:28:12;;;;;;;63.58;32.00;;;;;;;;;;5032936;28;20525;-71
2023/04/17 05:30:38;;;;;;;63.67;30.08;;;;;;;;;;5032104;28;20033;-71
2023/04/17 05:33:03;;;;;;;66.28;32.05;;;;;;;;;;5031001;28;20478;-71
2023/04/17 05:35:28;;;;;;;59.30;30.50;;;;;;;;;;5031468;28;20116;-71
2023/04/17 05:37:54;;;;;;;61.07;30.57;;;;;;;;;;5032494;28;20765;-71
2023/04/17 05:40:19;;;;;;;55.35;29.13;;;;;;;;;;5032320;28;20284;-71
2023/04/17 05:42:45;;;;;;;55.50;28.95;;;;;;;;;;5032149;28;20135;-71
2023/04/17 05:45:13;;;;;;;58.63;29.30;;;;;;;;;;5032585;28;20089;-71
2023/04/17 05:47:39;;;;;;;62.78;30.38;;;;;;;;;;5032632;28;20407;-71
2023/04/17 05:50:05;;;;;;;66.40;30.08;;;;;;;;;;5026775;28;20109;-73
2023/04/17 05:52:30;;;;;;;61.85;30.27;;;;;;;;;;5030764;28;20021;-71
2023/04/17 05:54:55;;;;;;;56.40;27.83;;;;;;;;;;5033460;28;20063;-71
2023/04/17 05:57:20;;;;;;;59.57;29.03;;;;;;;;;;5031057;28;20268;-71
2023/04/17 05:59:46;;;;;;;63.57;30.83;;;;;;;;;;5031545;28;20302;-71
2023/04/17 06:02:11;;;;;;;58.67;28.48;;;;;;;;;;5032754;28;20656;-71
2023/04/17 06:04:36;;;;;;;55.03;29.75;;;;;;;;;;5032112;28;20076;-71
2023/04/17 06:07:02;;;;;;;57.58;28.52;;;;;;;;;;5033343;28;20064;-71
2023/04/17 06:09:27;;;;;;;56.90;29.75;;;;;;;;;;5032970;28;20445;-71
2023/04/17 06:11:52;;;;;;;60.70;29.08;;;;;;;;;;5031441;28;20017;-71
2023/04/17 06:14:17;;;;;;;54.83;27.48;;;;;;;;;;5032659;28;20537;-71
2023/04/17 06:16:43;;;;;;;58.03;29.17;;;;;;;;;;5030721;28;20021;-72
2023/04/17 06:19:08;;;;;;;60.07;29.27;;;;;;;;;;5027751;28;20292;-71
2023/04/17 06:21:33;;;;;;;54.70;28.20;;;;;;;;;;5032511;28;20282;-71
2023/04/17 06:23:58;;;;;;;51.67;27.98;;;;;;;;;;5032528;28;20827;-71
2023/04/17 06:26:23;;;;;;;61.17;28.15;;;;;;;;;;5032532;28;20094;-71
2023/04/17 06:28:48;;;;;;;60.33;28.07;;;;;;;;;;5032485;28;20021;-71
2023/04/17 06:31:14;;;;;;;56.70;30.60;;;;;;;;;;5032287;28;20685;-71
2023/04/17 06:33:39;;;;;;;59.38;28.13;;;;;;;;;;5032402;28;20544;-71
2023/04/17 06:36:05;;;;;;;59.60;30.27;;;;;;;;;;5035023;28;20017;-71
2023/04/17 06:38:30;;;;;;;51.08;29.10;;;;;;;;;;5026738;28;20033;-71
2023/04/17 06:40:55;;;;;;;58.83;27.93;;;;;;;;;;5032015;28;20049;-71
2023/04/17 06:43:20;;;;;;;53.07;28.70;;;;;;;;;;5031673;28;20275;-71
2023/04/17 06:45:46;;;;;;;55.07;29.53;;;;;;;;;;5034275;28;20264;-71
2023/04/17 06:48:11;;;;;;;58.20;29.63;;;;;;;;;;5033091;28;20351;-71
2023/04/17 06:50:36;;;;;;;57.07;27.87;;;;;;;;;;5032264;28;20454;-71
2023/04/17 06:53:01;;;;;;;54.43;28.10;;;;;;;;;;5032260;28;20355;-71
2023/04/17 06:55:26;;;;;;;56.53;27.90;;;;;;;;;;5032006;28;20260;-71
2023/04/17 06:57:53;;;;;;;53.33;26.63;;;;;;;;;;5029058;28;20640;-71
2023/04/17 07:00:18;;;;;;;48.58;25.77;;;;;;;;;;5033007;28;20504;-71
2023/04/17 07:02:44;;;;;;;57.08;28.58;;;;;;;;;;5031789;28;20097;-71
2023/04/17 07:05:09;;;;;;;56.28;27.65;;;;;;;;;;5032510;28;20029;-71
2023/04/17 07:07:35;;;;;;;55.20;27.70;;;;;;;;;;5031935;28;20013;-71
2023/04/17 07:10:00;;;;;;;54.63;27.38;;;;;;;;;;5032264;28;20014;-71
2023/04/17 07:12:26;;;;;;;55.92;25.38;;;;;;;;;;5032168;28;20018;-71
2023/04/17 07:14:51;;;;;;;49.85;26.10;;;;;;;;;;5030629;28;20514;-71
2023/04/17 07:17:16;;;;;;;51.38;25.80;;;;;;;;;;5030076;28;20025;-71
2023/04/17 07:19:42;;;;;;;49.05;26.15;;;;;;;;;;5032024;28;20028;-71
2023/04/17 07:22:08;;;;;;;58.03;28.02;;;;;;;;;;5031750;28;20504;-71
2023/04/17 07:24:33;;;;;;;51.92;27.15;;;;;;;;;;5031592;28;20017;-71
2023/04/17 07:27:00;;;;;;;52.35;27.45;;;;;;;;;;5031615;28;20505;-71
2023/04/17 07:29:25;;;;;;;48.40;26.17;;;;;;;;;;5028456;28;20021;-71
2023/04/17 07:31:51;;;;;;;51.97;25.83;;;;;;;;;;5031539;28;20060;-71
2023/04/17 07:34:16;;;;;;;51.58;27.90;;;;;;;;;;5031529;28;20252;-71
2023/04/17 07:36:41;;;;;;;49.27;26.27;;;;;;;;;;5031101;28;20033;-71
2023/04/17 07:39:06;;;;;;;51.50;27.53;;;;;;;;;;5030732;28;20292;-71
2023/04/17 07:41:32;;;;;;;47.97;26.65;;;;;;;;;;5029211;28;20776;-71
2023/04/17 07:43:57;;;;;;;49.57;26.07;;;;;;;;;;5029552;28;20025;-71
2023/04/17 07:46:22;;;;;;;51.20;27.00;;;;;;;;;;5030575;28;20265;-71
2023/04/17 07:48:47;;;;;;;51.80;26.80;;;;;;;;;;5031233;28;20049;-71
2023/04/17 07:51:12;;;;;;;51.85;28.02;;;;;;;;;;5031157;28;20107;-71
2023/04/17 07:53:38;;;;;;;48.67;24.17;;;;;;;;;;5030800;28;20505;-71
2023/04/17 07:56:04;;;;;;;54.03;27.02;;;;;;;;;;5030536;28;20283;-71
2023/04/17 07:58:29;;;;;;;55.65;26.90;;;;;;;;;;5030811;28;20078;-71
2023/04/17 08:00:54;;;;;;;47.57;27.33;;;;;;;;;;5030581;28;20413;-71
2023/04/17 08:03:22;;;;;;;42.70;22.80;;;;;;;;;;5030599;28;20268;-71
2023/04/17 08:05:48;;;;;;;44.28;23.95;;;;;;;;;;5031088;28;20092;-71
2023/04/17 08:08:14;;;;;;;52.92;24.65;;;;;;;;;;5030883;28;20029;-71
2023/04/17 08:10:39;;;;;;;46.53;23.10;;;;;;;;;;5030522;28;20013;-71
2023/04/17 08:13:05;;;;;;;41.70;21.70;;;;;;;;;;5030818;28;20029;-71
2023/04/17 08:15:30;;;;;;;45.95;24.00;;;;;;;;;;5028461;28;20264;-72
2023/04/17 08:17:56;;;;;;;41.90;23.40;;;;;;;;;;5030099;28;20506;-72
2023/04/17 08:20:22;;;;;;;41.20;21.98;;;;;;;;;;5029854;28;20283;-71
2023/04/17 08:22:47;;;;;;;40.08;20.60;;;;;;;;;;5031182;28;20028;-71
2023/04/17 08:25:12;;;;;;;38.35;20.42;;;;;;;;;;5030968;28;20105;-71
2023/04/17 08:27:39;;;;;;;38.70;22.20;;;;;;;;;;5032278;28;20091;-71
2023/04/17 08:30:05;;;;;;;41.88;21.50;;;;;;;;;;5030475;28;20017;-72
2023/04/17 08:32:36;;;;;;;33.45;19.17;;;;;;;;;;5029441;28;20024;-72
2023/04/17 08:35:01;;;;;;;40.67;20.52;;;;;;;;;;5023992;28;20075;-71
2023/04/17 08:37:27;;;;;;;45.80;20.37;;;;;;;;;;5030416;28;20013;-71
2023/04/17 08:39:52;;;;;;;37.20;20.65;;;;;;;;;;5030170;28;20752;-71
2023/04/17 08:42:17;;;;;;;38.05;19.70;;;;;;;;;;5030418;28;20033;-71
2023/04/17 08:44:43;;;;;;;38.27;21.13;;;;;;;;;;5022069;28;20024;-71
2023/04/17 08:47:08;;;;;;;37.88;20.80;;;;;;;;;;5026454;28;20260;-71
2023/04/17 08:49:34;;;;;;;35.13;19.58;;;;;;;;;;5030047;28;20045;-72
2023/04/17 08:52:03;;;;;;;45.15;19.63;;;;;;;;;;5030266;28;20036;-71
2023/04/17 08:54:29;;;;;;;40.63;19.25;;;;;;;;;;5023926;28;20022;-71
2023/04/17 08:56:55;;;;;;;35.05;18.85;;;;;;;;;;5028979;28;20021;-71
2023/04/17 08:59:22;;;;;;;33.10;18.55;;;;;;;;;;5038947;28;20084;-71
2023/04/17 09:02:01;;;;;;;35.90;19.58;;;;;;;;;;5033410;28;20009;-71
2023/04/17 09:04:36;;;;;;;55.13;19.83;;;;;;;;;;5034160;28;20026;-72
2023/04/17 09:07:02;;;;;;;34.17;18.95;;;;;;;;;;5033958;28;20015;-71
2023/04/17 09:09:45;;;;;;;41.83;20.38;;;;;;;;;;5033998;28;20023;-71
2023/04/17 09:12:10;;;;;;;32.00;17.92;;;;;;;;;;5034543;28;20544;-72
2023/04/17 09:14:35;;;;;;;34.03;20.38;;;;;;;;;;5030091;28;20037;-71
2023/04/17 09:17:00;;;;;;;33.58;18.75;;;;;;;;;;5034091;28;20066;-72
2023/04/17 09:19:26;;;;;;;35.60;18.30;;;;;;;;;;5034241;28;20067;-72
2023/04/17 09:21:52;;;;;;;42.85;19.95;;;;;;;;;;5030709;28;20371;-71
2023/04/17 09:24:30;;;;;;;40.97;19.65;;;;;;;;;;5031683;28;20080;-71
2023/04/17 09:27:16;;;;;;;35.90;19.13;;;;;;;;;;5026688;28;20061;-71
2023/04/17 09:30:01;;;;;;;33.55;17.52;;;;;;;;;;5033798;28;20033;-72
2023/04/17 09:32:27;;;;;;;30.23;17.63;;;;;;;;;;5046363;28;20075;-71
2023/04/17 09:34:52;;;;;;;33.80;18.20;;;;;;;;;;5033029;28;20025;-72
2023/04/17 09:37:18;;;;;;;31.05;15.65;;;;;;;;;;5033384;28;20018;-71
2023/04/17 09:39:56;;;;;;;31.60;15.15;;;;;;;;;;5032605;28;20043;-72
2023/04/17 09:42:22;;;;;;;39.42;17.55;;;;;;;;;;5032484;28;20017;-71
2023/04/17 09:44:48;;;;;;;23.15;14.07;;;;;;;;;;5033472;28;20083;-72
2023/04/17 09:47:15;;;;;;;24.05;13.32;;;;;;;;;;5031010;28;20013;-71
2023/04/17 09:49:41;;;;;;;30.30;16.70;;;;;;;;;;5031423;28;20067;-68
2023/04/17 09:52:06;;;;;;;28.45;13.65;;;;;;;;;;5029543;28;20383;-72
2023/04/17 09:54:36;;;;;;;21.05;12.68;;;;;;;;;;5031049;28;20025;-70
2023/04/17 09:57:03;;;;;;;22.38;13.93;;;;;;;;;;5033030;28;20031;-70
2023/04/17 09:59:29;;;;;;;22.83;13.27;;;;;;;;;;5030815;28;20036;-70
2023/04/17 10:01:55;;;;;;;20.25;11.75;;;;;;;;;;5029832;28;20061;-69
2023/04/17 10:04:21;;;;;;;21.23;11.82;;;;;;;;;;5029994;28;20048;-70
2023/04/17 10:06:46;;;;;;;21.08;12.48;;;;;;;;;;5029141;28;20478;-70
2023/04/17 10:09:11;;;;;;;17.45;11.45;;;;;;;;;;5023296;28;20029;-71
2023/04/17 10:11:38;;;;;;;17.60;11.10;;;;;;;;;;5028578;28;20899;-70
2023/04/17 10:14:10;;;;;;;21.23;11.07;;;;;;;;;;5035011;28;20284;-70
2023/04/17 10:16:38;;;;;;;18.63;11.07;;;;;;;;;;5031445;28;20028;-70
2023/04/17 10:19:22;;;;;;;18.30;10.18;;;;;;;;;;5033555;28;20013;-70
2023/04/17 10:22:08;;;;;;;14.60;10.38;;;;;;;;;;5029360;28;20057;-70
2023/04/17 10:24:34;;;;;;;19.00;9.60;;;;;;;;;;5034680;28;20490;-69
2023/04/17 10:27:00;;;;;;;18.75;9.45;;;;;;;;;;5033981;28;20033;-70
2023/04/17 10:29:43;;;;;;;16.00;9.48;;;;;;;;;;5031009;28;20080;-71
2023/04/17 10:32:09;;;;;;;21.25;10.60;;;;;;;;;;5031184;28;20116;-70
2023/04/17 10:34:35;;;;;;;19.65;10.18;;;;;;;;;;5030385;28;20048;-70
2023/04/17 10:37:01;;;;;;;14.63;8.65;;;;;;;;;;5028819;28;20117;-70
2023/04/17 10:39:26;;;;;;;14.70;9.75;;;;;;;;;;5035060;28;20025;-70
2023/04/17 10:42:05;;;;;;;18.23;8.73;;;;;;;;;;5030151;28;20713;-70
2023/04/17 10:44:49;;;;;;;15.63;9.05;;;;;;;;;;5031636;28;20025;-70
2023/04/17 10:47:14;;;;;;;17.42;10.27;;;;;;;;;;5028684;28;20013;-70
2023/04/17 10:49:49;;;;;;;16.92;10.68;;;;;;;;;;5025553;28;1091542;-71
2023/04/17 10:52:34;;;;;;;16.70;9.90;;;;;;;;;;5030512;28;20375;-70
2023/04/17 10:55:05;;;;;;;14.90;9.40;;;;;;;;;;5029481;28;20028;-70
2023/04/17 10:57:49;;;;;;;17.13;9.20;;;;;;;;;;5029628;28;20021;-70
2023/04/17 11:00:15;;;;;;;15.25;9.95;;;;;;;;;;5030380;28;20434;-69
2023/04/17 11:02:44;;;;;;;15.82;8.57;;;;;;;;;;5032069;28;20386;-70
2023/04/17 11:05:09;;;;;;;13.73;8.80;;;;;;;;;;5032930;28;20017;-70
2023/04/17 11:07:35;;;;;;;14.52;8.30;;;;;;;;;;5032869;28;20467;-70
2023/04/17 11:10:04;;;;;;;18.40;8.95;;;;;;;;;;5034549;28;20096;-70
2023/04/17 11:12:30;;;;;;;21.05;9.10;;;;;;;;;;5031341;28;20021;-70
2023/04/17 11:15:00;;;;;;;16.70;9.63;;;;;;;;;;5022757;28;20045;-70
2023/04/17 11:17:25;;;;;;;13.85;7.03;;;;;;;;;;5029659;28;20063;-69
2023/04/17 11:19:52;;;;;;;17.95;8.68;;;;;;;;;;5029508;28;20530;-69
2023/04/17 11:22:18;;;;;;;17.42;7.78;;;;;;;;;;5030360;28;20070;-69
2023/04/17 11:24:43;;;;;;;13.45;7.88;;;;;;;;;;5031765;28;20041;-70
2023/04/17 11:27:08;;;;;;;12.33;8.00;;;;;;;;;;5031139;28;20122;-69
2023/04/17 11:29:33;;;;;;;14.40;7.40;;;;;;;;;;5029215;28;20920;-69
2023/04/17 11:32:00;;;;;;;17.77;8.50;;;;;;;;;;5027790;28;20786;-69
2023/04/17 11:34:28;;;;;;;14.30;8.13;;;;;;;;;;5029403;28;20272;-70
2023/04/17 11:36:55;;;;;;;16.90;7.70;;;;;;;;;;5029547;28;20022;-69
2023/04/17 11:39:22;;;;;;;15.38;8.80;;;;;;;;;;5032843;28;20013;-69
2023/04/17 11:41:48;;;;;;;16.85;8.77;;;;;;;;;;5028146;28;20068;-69
2023/04/17 11:44:14;;;;;;;20.23;8.57;;;;;;;;;;5029728;28;20021;-70
2023/04/17 11:46:39;;;;;;;16.25;7.45;;;;;;;;;;5027906;28;20433;-70
2023/04/17 11:49:05;;;;;;;18.83;7.85;;;;;;;;;;5029640;28;20689;-68
2023/04/17 11:51:30;;;;;;;15.80;6.97;;;;;;;;;;5029201;28;20021;-69
2023/04/17 11:53:56;;;;;;;11.63;7.07;;;;;;;;;;5026341;28;20112;-70
2023/04/17 11:56:26;;;;;;;14.93;7.07;;;;;;;;;;5032559;28;20017;-71
2023/04/17 11:58:52;;;;;;;9.52;5.82;;;;;;;;;;5024721;28;20021;-70
2023/04/17 12:01:18;;;;;;;15.85;6.68;;;;;;;;;;5028160;28;20036;-70
2023/04/17 12:03:43;;;;;;;11.00;5.10;;;;;;;;;;5029590;28;20494;-70
2023/04/17 12:06:10;;;;;;;11.87;5.57;;;;;;;;;;5031833;28;20026;-70
2023/04/17 12:08:46;;;;;;;10.15;5.40;;;;;;;;;;5029868;28;20290;-71
2023/04/17 12:11:34;;;;;;;10.77;5.15;;;;;;;;;;5026733;28;20025;-71
2023/04/17 12:14:01;;;;;;;7.60;5.47;;;;;;;;;;5026469;28;20649;-71
2023/04/17 12:16:26;;;;;;;11.77;5.68;;;;;;;;;;5031564;28;20049;-71
2023/04/17 12:18:52;;;;;;;10.25;5.50;;;;;;;;;;5030150;28;20049;-71
2023/04/17 12:21:19;;;;;;;11.95;5.75;;;;;;;;;;5027790;28;20040;-71
2023/04/17 12:23:44;;;;;;;10.70;5.10;;;;;;;;;;5030185;28;20105;-71
2023/04/17 12:26:09;;;;;;;8.05;4.57;;;;;;;;;;5025292;28;20104;-71
2023/04/17 12:28:35;;;;;;;7.43;4.53;;;;;;;;;;5030422;28;20460;-71
2023/04/17 12:31:00;;;;;;;5.50;3.75;;;;;;;;;;5026252;28;20287;-71
2023/04/17 12:33:25;;;;;;;7.43;4.78;;;;;;;;;;5023751;28;20100;-71
2023/04/17 12:35:51;;;;;;;8.35;4.57;;;;;;;;;;5030115;28;20524;-71
2023/04/17 12:38:16;;;;;;;8.57;4.60;;;;;;;;;;5027412;28;20028;-71
2023/04/17 12:40:42;;;;;;;11.45;5.53;;;;;;;;;;5029666;28;20283;-71
2023/04/17 12:43:08;;;;;;;14.93;5.97;;;;;;;;;;5028658;28;20021;-71
2023/04/17 12:45:33;;;;;;;12.40;5.90;;;;;;;;;;5029056;28;20105;-71
2023/04/17 12:47:58;;;;;;;9.10;5.10;;;;;;;;;;5027721;28;20112;-71
2023/04/17 12:50:24;;;;;;;11.63;6.10;;;;;;;;;;5032733;28;20029;-71
2023/04/17 12:52:49;;;;;;;8.93;5.35;;;;;;;;;;5028617;28;20052;-71
2023/04/17 12:55:14;;;;;;;9.33;5.47;;;;;;;;;;5028549;28;20379;-72
2023/04/17 12:57:39;;;;;;;11.35;5.50;;;;;;;;;;5031273;28;20104;-71
2023/04/17 13:00:05;;;;;;;10.23;5.15;;;;;;;;;;5030101;28;20110;-71
2023/04/17 13:02:31;;;;;;;12.18;5.05;;;;;;;;;;5028829;28;20060;-71
2023/04/17 13:04:56;;;;;;;6.83;5.00;;;;;;;;;;5030202;28;20516;-71
2023/04/17 13:07:21;;;;;;;10.52;5.80;;;;;;;;;;5028252;28;20287;-71
2023/04/17 13:09:46;;;;;;;16.42;5.75;;;;;;;;;;5026177;28;20022;-71
2023/04/17 13:12:14;;;;;;;8.77;4.63;;;;;;;;;;5030853;28;20380;-71
2023/04/17 13:14:39;;;;;;;10.50;5.03;;;;;;;;;;5028273;28;20489;-71
2023/04/17 13:17:05;;;;;;;13.05;5.93;;;;;;;;;;5026685;28;20029;-71
2023/04/17 13:19:33;;;;;;;9.52;5.15;;;;;;;;;;5031925;28;20025;-71
2023/04/17 13:21:59;;;;;;;6.90;4.53;;;;;;;;;;5026265;28;20103;-71
2023/04/17 13:24:24;;;;;;;11.88;5.93;;;;;;;;;;5031849;28;20053;-71
2023/04/17 13:26:50;;;;;;;15.07;5.53;;;;;;;;;;5028720;28;20380;-71
2023/04/17 13:29:15;;;;;;;9.25;5.82;;;;;;;;;;5027851;28;20031;-71
2023/04/17 13:31:40;;;;;;;8.43;5.20;;;;;;;;;;5024522;28;20036;-71
2023/04/17 13:34:05;;;;;;;13.87;5.90;;;;;;;;;;5033211;28;20531;-72
2023/04/17 13:36:31;;;;;;;13.35;5.18;;;;;;;;;;5029451;28;20022;-70
2023/04/17 13:38:56;;;;;;;11.85;5.70;;;;;;;;;;5033328;28;20064;-70
2023/04/17 13:41:21;;;;;;;10.40;5.87;;;;;;;;;;5028428;28;20030;-70
2023/04/17 13:43:46;;;;;;;11.70;5.88;;;;;;;;;;5029263;28;20753;-70
2023/04/17 13:46:14;;;;;;;14.07;7.20;;;;;;;;;;5033159;28;20458;-70
2023/04/17 13:48:40;;;;;;;10.85;5.00;;;;;;;;;;5031723;28;20300;-70
2023/04/17 13:51:06;;;;;;;10.15;5.75;;;;;;;;;;5032229;28;20022;-70
2023/04/17 13:53:31;;;;;;;9.68;6.07;;;;;;;;;;5036961;28;20021;-70
2023/04/17 13:55:56;;;;;;;11.37;5.97;;;;;;;;;;5032863;28;20053;-70
2023/04/17 13:58:21;;;;;;;11.37;6.10;;;;;;;;;;5030628;28;20304;-71
2023/04/17 14:00:47;;;;;;;14.13;5.53;;;;;;;;;;5030170;28;20846;-71
2023/04/17 14:03:12;;;;;;;9.77;5.53;;;;;;;;;;5030934;28;20279;-72
2023/04/17 14:05:37;;;;;;;12.80;6.37;;;;;;;;;;5033435;28;20120;-71
2023/04/17 14:08:03;;;;;;;9.48;5.32;;;;;;;;;;5031771;28;20030;-71
2023/04/17 14:10:28;;;;;;;9.68;5.30;;;;;;;;;;5028946;28;20040;-71
2023/04/17 14:12:53;;;;;;;9.43;5.70;;;;;;;;;;5031830;28;20025;-71
2023/04/17 14:15:18;;;;;;;9.30;5.30;;;;;;;;;;5031204;28;20273;-71